createdAt,value
2017-11-10T00:02:05.175Z,369.43
2017-11-10T00:04:14.254Z,363.00
2017-11-10T00:06:20.985Z,353.37
2017-11-10T00:08:26.861Z,340.27
2017-11-10T00:10:33.275Z,327.83
2017-11-10T00:12:41.159Z,323.77
2017-11-10T00:14:47.134Z,330.93
2017-11-10T00:16:54.068Z,321.43
2017-11-10T00:19:02.907Z,309.60
2017-11-10T00:21:08.635Z,310.40
2017-11-10T00:23:23.820Z,302.40
2017-11-10T00:25:31.463Z,287.80
2017-11-10T00:27:39.719Z,280.93
2017-11-10T00:29:48.354Z,280.40
2017-11-10T00:31:55.163Z,278.30
2017-11-10T00:34:04.593Z,272.77
2017-11-10T00:36:15.508Z,271.67
2017-11-10T00:38:21.706Z,265.50
2017-11-10T00:40:28.886Z,258.60
2017-11-10T00:42:40.070Z,250.97
2017-11-10T00:44:46.576Z,244.20
2017-11-10T00:46:52.934Z,239.40
2017-11-10T00:49:00.423Z,237.73
2017-11-10T00:51:06.805Z,231.43
2017-11-10T00:53:14.189Z,225.57
2017-11-10T00:55:20.115Z,221.40
2017-11-10T00:57:26.104Z,215.93
2017-11-10T00:59:32.070Z,212.60
2017-11-10T01:01:41.956Z,207.97
2017-11-10T01:03:48.172Z,199.87
2017-11-10T01:05:54.619Z,194.07
2017-11-10T01:08:14.215Z,193.33
2017-11-10T01:10:20.134Z,183.80
2017-11-10T01:12:26.695Z,179.07
2017-11-10T01:14:32.435Z,172.57
2017-11-10T01:16:38.382Z,171.03
2017-11-10T01:18:44.203Z,176.57
2017-11-10T01:20:50.729Z,163.40
2017-11-10T01:22:57.402Z,165.40
2017-11-10T01:25:08.119Z,159.97
2017-11-10T01:27:15.635Z,151.20
2017-11-10T01:29:21.592Z,152.10
2017-11-10T01:31:27.353Z,147.00
2017-11-10T01:33:33.049Z,141.90
2017-11-10T01:35:39.849Z,138.93
2017-11-10T01:37:47.363Z,135.83
2017-11-10T01:39:53.926Z,129.90
2017-11-10T01:42:00.781Z,135.07
2017-11-10T01:44:14.768Z,131.70
2017-11-10T01:46:20.558Z,123.53
2017-11-10T01:48:52.160Z,124.20
2017-11-10T01:51:01.125Z,118.27
2017-11-10T01:53:16.673Z,118.30
2017-11-10T01:55:22.530Z,116.83
2017-11-10T01:57:29.285Z,113.90
2017-11-10T01:59:35.438Z,110.30
2017-11-10T02:01:42.706Z,104.47
2017-11-10T02:03:48.874Z,107.00
2017-11-10T02:05:55.358Z,102.53
2017-11-10T02:08:03.688Z,103.10
2017-11-10T02:10:11.693Z,102.10
2017-11-10T02:12:19.219Z,95.70
2017-11-10T02:14:27.908Z,96.37
2017-11-10T02:16:33.709Z,94.93
2017-11-10T02:18:39.536Z,89.93
2017-11-10T02:20:46.736Z,90.80
2017-11-10T02:22:53.314Z,90.40
2017-11-10T02:25:05.965Z,87.50
2017-11-10T02:27:15.745Z,82.90
2017-11-10T02:29:25.771Z,81.47
2017-11-10T02:31:35.974Z,79.20
2017-11-10T02:33:41.692Z,80.43
2017-11-10T02:35:50.287Z,76.93
2017-11-10T02:37:59.514Z,73.03
2017-11-10T02:40:09.742Z,73.13
2017-11-10T02:42:20.047Z,73.80
2017-11-10T02:44:26.340Z,68.30
2017-11-10T02:46:33.116Z,67.10
2017-11-10T02:48:40.821Z,66.50
2017-11-10T02:50:48.475Z,64.20
2017-11-10T02:52:55.359Z,62.90
2017-11-10T02:55:05.106Z,63.30
2017-11-10T02:57:29.476Z,61.67
2017-11-10T02:59:42.847Z,57.20
2017-11-10T03:02:05.043Z,57.43
2017-11-10T03:04:17.998Z,57.00
2017-11-10T03:06:23.611Z,57.27
2017-11-10T03:08:29.405Z,54.00
2017-11-10T03:13:21.512Z,52.20
2017-11-10T03:15:27.736Z,52.27
2017-11-10T03:17:34.658Z,49.60
2017-11-10T03:19:41.270Z,50.50
2017-11-10T03:21:48.780Z,47.83
2017-11-10T03:24:00.878Z,46.60
2017-11-10T03:26:13.863Z,46.40
2017-11-10T03:28:20.156Z,44.70
2017-11-10T03:30:27.538Z,45.63
2017-11-10T03:32:34.148Z,45.80
2017-11-10T03:34:41.836Z,42.10
2017-11-10T03:36:51.986Z,40.67
2017-11-10T03:39:00.259Z,40.40
2017-11-10T03:41:09.464Z,40.30
2017-11-10T03:43:19.035Z,41.77
2017-11-10T03:45:25.470Z,40.87
2017-11-10T03:47:33.128Z,37.87
2017-11-10T03:49:39.528Z,37.33
2017-11-10T03:51:48.427Z,37.80
2017-11-10T03:53:55.778Z,36.47
2017-11-10T03:56:01.494Z,34.97
2017-11-10T03:58:10.810Z,34.90
2017-11-10T04:00:22.359Z,34.80
2017-11-10T04:02:30.954Z,33.70
2017-11-10T04:04:42.012Z,34.50
2017-11-10T04:06:54.007Z,34.33
2017-11-10T04:08:59.587Z,31.80
2017-11-10T04:11:13.923Z,31.27
2017-11-10T04:13:21.020Z,31.70
2017-11-10T04:15:32.013Z,30.20
2017-11-10T04:17:39.824Z,31.20
2017-11-10T04:19:48.708Z,29.77
2017-11-10T04:21:54.786Z,29.60
2017-11-10T04:24:03.468Z,30.47
2017-11-10T04:26:09.281Z,27.87
2017-11-10T04:28:18.872Z,27.40
2017-11-10T04:30:24.727Z,26.00
2017-11-10T04:32:30.881Z,27.63
2017-11-10T04:34:41.713Z,25.80
2017-11-10T04:36:47.855Z,24.90
2017-11-10T04:38:54.213Z,25.37
2017-11-10T04:41:00.263Z,24.57
2017-11-10T04:43:06.636Z,24.00
2017-11-10T04:45:14.141Z,25.00
2017-11-10T04:47:20.053Z,24.30
2017-11-10T04:49:25.710Z,22.10
2017-11-10T04:51:31.185Z,22.67
2017-11-10T04:53:36.753Z,22.80
2017-11-10T04:55:42.535Z,22.40
2017-11-10T04:57:48.518Z,20.83
2017-11-10T04:59:54.558Z,20.40
2017-11-10T05:02:02.383Z,20.90
2017-11-10T05:04:09.489Z,21.30
2017-11-10T05:06:16.947Z,20.63
2017-11-10T05:08:22.548Z,18.03
2017-11-10T05:10:28.117Z,19.53
2017-11-10T05:12:33.648Z,18.93
2017-11-10T05:14:39.173Z,20.77
2017-11-10T05:16:44.723Z,20.03
2017-11-10T05:18:51.322Z,19.70
2017-11-10T05:20:57.150Z,20.00
2017-11-10T05:23:04.955Z,19.30
2017-11-10T05:25:12.410Z,18.63
2017-11-10T05:27:18.981Z,17.70
2017-11-10T05:29:24.697Z,16.63
2017-11-10T05:31:30.577Z,17.83
2017-11-10T05:33:36.436Z,16.33
2017-11-10T05:35:42.283Z,17.53
2017-11-10T05:37:48.413Z,16.03
2017-11-10T05:39:54.786Z,16.90
2017-11-10T05:42:06.823Z,17.10
2017-11-10T05:44:15.543Z,16.60
2017-11-10T05:46:30.372Z,16.80
2017-11-10T05:48:36.404Z,16.87
2017-11-10T05:50:42.943Z,16.00
2017-11-10T05:52:49.868Z,16.07
2017-11-10T05:54:57.765Z,17.20
2017-11-10T05:57:04.125Z,16.97
2017-11-10T05:59:13.914Z,15.23
2017-11-10T06:01:19.786Z,15.80
2017-11-10T06:03:26.494Z,15.57
2017-11-10T06:05:33.336Z,16.20
2017-11-10T06:07:40.260Z,16.20
2017-11-10T06:09:48.259Z,15.07
2017-11-10T06:11:55.257Z,15.27
2017-11-10T06:14:03.130Z,15.60
2017-11-10T06:16:12.649Z,15.67
2017-11-10T06:18:24.547Z,14.47
2017-11-10T06:20:42.726Z,13.93
2017-11-10T06:22:53.382Z,14.33
2017-11-10T06:25:00.395Z,15.17
2017-11-10T06:27:08.877Z,14.70
2017-11-10T06:29:23.949Z,12.73
2017-11-10T06:31:30.455Z,13.43
2017-11-10T06:33:38.497Z,13.10
2017-11-10T06:35:45.376Z,13.30
2017-11-10T06:37:53.014Z,12.87
2017-11-10T06:40:00.260Z,11.83
2017-11-10T06:42:07.591Z,12.60
2017-11-10T06:44:16.701Z,12.50
2017-11-10T06:46:24.323Z,12.33
2017-11-10T06:48:29.806Z,12.27
2017-11-10T06:50:35.896Z,11.17
2017-11-10T06:52:43.254Z,12.13
2017-11-10T06:54:49.246Z,12.53
2017-11-10T06:56:55.522Z,11.50
2017-11-10T06:59:04.872Z,11.20
2017-11-10T07:01:11.125Z,11.27
2017-11-10T07:03:21.872Z,11.43
2017-11-10T07:05:27.720Z,12.13
2017-11-10T07:07:33.127Z,11.30
2017-11-10T07:09:39.072Z,11.53
2017-11-10T07:11:45.045Z,16.93
2017-11-10T07:13:52.525Z,31.67
2017-11-10T07:16:18.267Z,30.67
2017-11-10T07:18:25.760Z,33.83
2017-11-10T07:20:31.864Z,33.33
2017-11-10T07:22:37.597Z,34.57
2017-11-10T07:24:48.163Z,35.00
2017-11-10T07:26:54.384Z,34.50
2017-11-10T07:29:02.293Z,999.90
2017-11-10T07:31:08.485Z,431.13
2017-11-10T07:33:17.704Z,230.40
2017-11-10T07:35:23.366Z,246.60
2017-11-10T07:37:29.776Z,219.40
2017-11-10T07:39:35.427Z,219.27
2017-11-10T07:41:41.417Z,219.73
2017-11-10T07:43:47.919Z,209.40
2017-11-10T07:45:54.223Z,219.00
2017-11-10T07:48:04.390Z,218.17
2017-11-10T07:50:10.109Z,444.67
2017-11-10T07:52:19.638Z,353.50
2017-11-10T07:54:25.417Z,377.30
2017-11-10T07:56:32.659Z,390.60
2017-11-10T07:58:38.318Z,412.77
2017-11-10T08:00:44.312Z,398.77
2017-11-10T08:02:50.674Z,396.90
2017-11-10T08:04:57.421Z,385.57
2017-11-10T08:07:05.740Z,379.37
2017-11-10T08:09:14.429Z,585.00
2017-11-10T08:11:20.000Z,567.57
2017-11-10T08:13:27.262Z,611.40
2017-11-10T08:15:32.543Z,567.83
2017-11-10T08:17:38.160Z,534.00
2017-11-10T08:19:44.254Z,518.87
2017-11-10T08:21:51.663Z,535.43
2017-11-10T08:24:01.017Z,522.40
2017-11-10T08:26:14.646Z,514.37
2017-11-10T08:28:22.224Z,511.47
2017-11-10T08:32:50.025Z,497.37
2017-11-10T08:35:04.703Z,497.33
2017-11-10T08:37:14.280Z,475.90
2017-11-10T08:39:19.809Z,468.33
2017-11-10T08:41:26.794Z,459.83
2017-11-10T08:43:33.958Z,450.70
2017-11-10T08:45:39.577Z,451.90
2017-11-10T08:47:45.814Z,517.23
2017-11-10T08:49:52.363Z,543.20
2017-11-10T08:51:59.639Z,586.97
2017-11-10T08:54:09.016Z,553.33
2017-11-10T08:56:16.869Z,558.20
2017-11-10T08:58:23.377Z,547.47
2017-11-10T09:00:31.984Z,547.73
2017-11-10T09:02:38.756Z,537.70
2017-11-10T09:04:44.473Z,775.40
2017-11-10T09:06:51.807Z,675.37
2017-11-10T09:08:58.185Z,722.20
2017-11-10T09:11:04.045Z,654.37
2017-11-10T09:13:09.546Z,628.40
2017-11-10T09:15:18.517Z,626.70
2017-11-10T09:17:36.846Z,623.27
2017-11-10T09:19:43.448Z,616.30
2017-11-10T09:21:53.819Z,605.30
2017-11-10T09:26:57.488Z,609.10
2017-11-10T09:29:14.593Z,630.07
2017-11-10T09:31:20.538Z,636.17
2017-11-10T09:33:27.051Z,695.40
2017-11-10T09:35:33.460Z,669.07
2017-11-10T09:37:39.748Z,663.90
2017-11-10T09:39:45.979Z,665.63
2017-11-10T09:41:57.244Z,659.03
2017-11-10T09:44:04.156Z,661.03
2017-11-10T09:46:13.067Z,658.43
2017-11-10T09:48:23.046Z,639.60
2017-11-10T09:50:33.179Z,640.87
2017-11-10T09:52:39.376Z,634.67
2017-11-10T09:54:46.313Z,609.97
2017-11-10T09:56:52.414Z,614.00
2017-11-10T09:59:04.012Z,612.57
2017-11-10T10:01:09.974Z,593.17
2017-11-10T10:03:18.674Z,596.20
2017-11-10T10:05:24.985Z,585.07
2017-11-10T10:07:33.081Z,580.57
2017-11-10T10:09:39.563Z,592.23
2017-11-10T10:11:46.544Z,733.30
2017-11-10T10:13:53.590Z,640.60
2017-11-10T10:16:00.407Z,642.47
2017-11-10T10:18:07.846Z,668.50
2017-11-10T10:20:17.899Z,652.10
2017-11-10T10:22:24.170Z,644.93
2017-11-10T10:24:30.232Z,642.60
2017-11-10T10:26:36.022Z,728.30
2017-11-10T10:28:41.716Z,628.97
2017-11-10T10:30:48.240Z,628.60
2017-11-10T10:32:54.639Z,614.27
2017-11-10T10:35:03.197Z,616.37
2017-11-10T10:37:09.196Z,692.40
2017-11-10T10:39:18.862Z,603.10
2017-11-10T10:41:24.497Z,586.37
2017-11-10T10:43:30.454Z,571.87
2017-11-10T10:45:36.254Z,562.57
2017-11-10T10:47:42.011Z,560.10
2017-11-10T10:49:49.049Z,548.33
2017-11-10T10:51:55.450Z,549.33
2017-11-10T10:54:18.836Z,532.17
2017-11-10T10:56:25.436Z,529.40
2017-11-10T10:58:34.159Z,531.97
2017-11-10T11:00:43.123Z,514.43
2017-11-10T11:02:58.922Z,504.53
2017-11-10T11:05:14.249Z,499.37
2017-11-10T11:07:23.491Z,480.60
2017-11-10T11:09:35.173Z,484.97
2017-11-10T11:11:51.192Z,494.23
2017-11-10T11:13:59.768Z,472.90
2017-11-10T11:16:07.269Z,490.40
2017-11-10T11:18:22.135Z,473.53
2017-11-10T11:20:31.634Z,472.70
2017-11-10T11:22:41.119Z,458.43
2017-11-10T11:24:55.738Z,454.90
2017-11-10T11:27:04.478Z,447.80
2017-11-10T11:31:29.328Z,470.63
2017-11-10T11:33:46.992Z,529.83
2017-11-10T11:35:54.929Z,551.40
2017-11-10T11:38:17.921Z,550.57
2017-11-10T11:40:29.356Z,560.57
2017-11-10T11:42:46.450Z,495.40
2017-11-10T11:45:09.823Z,835.80
2017-11-10T11:47:19.890Z,465.10
2017-11-10T11:49:26.374Z,382.43
2017-11-10T11:51:32.054Z,365.30
2017-11-10T11:54:01.893Z,271.07
2017-11-10T11:56:23.697Z,262.87
2017-11-10T11:58:30.928Z,215.10
2017-11-10T12:00:44.836Z,181.00
2017-11-10T12:02:52.616Z,184.70
2017-11-10T12:04:58.729Z,173.70
2017-11-10T12:07:04.466Z,170.80
2017-11-10T12:09:10.120Z,324.27
2017-11-10T12:11:17.785Z,459.10
2017-11-10T12:13:23.745Z,197.43
2017-11-10T12:15:30.105Z,326.30
2017-11-10T12:17:36.449Z,135.70
2017-11-10T12:19:43.119Z,101.70
2017-11-10T12:21:49.787Z,124.37
2017-11-10T12:23:56.245Z,125.57
2017-11-10T12:26:04.277Z,111.50
2017-11-10T12:28:14.486Z,84.17
2017-11-10T12:30:22.892Z,81.13
2017-11-10T12:32:30.872Z,58.07
2017-11-10T12:34:36.915Z,58.20
2017-11-10T12:36:43.401Z,76.23
2017-11-10T12:38:50.264Z,62.70
2017-11-10T12:40:56.761Z,59.53
2017-11-10T12:43:05.841Z,52.30
2017-11-10T12:45:17.675Z,51.47
2017-11-10T12:47:23.499Z,45.20
2017-11-10T12:49:29.415Z,46.00
2017-11-10T13:03:33.278Z,32.50
2017-11-10T13:05:39.195Z,38.60
2017-11-10T13:07:45.614Z,30.53
2017-11-10T13:09:50.925Z,28.33
2017-11-10T13:11:56.775Z,27.30
2017-11-10T13:14:04.647Z,28.20
2017-11-10T13:16:13.551Z,25.47
2017-11-10T13:18:21.028Z,26.43
2017-11-10T13:20:27.687Z,21.13
2017-11-10T13:22:34.320Z,27.67
2017-11-10T13:24:40.760Z,18.67
2017-11-10T13:26:47.306Z,19.30
2017-11-10T13:28:54.060Z,18.57
2017-11-10T13:31:01.432Z,20.10
2017-11-10T13:33:08.970Z,17.90
2017-11-10T13:35:18.455Z,19.63
2017-11-10T13:37:25.075Z,14.93
2017-11-10T13:39:32.137Z,16.50
2017-11-10T13:41:38.212Z,13.83
2017-11-10T13:43:49.207Z,13.27
2017-11-10T13:46:04.953Z,12.70
2017-11-10T13:48:13.111Z,15.60
2017-11-10T13:52:38.902Z,10.37
2017-11-10T13:54:47.374Z,11.40
2017-11-10T13:56:55.923Z,11.80
2017-11-10T13:59:07.329Z,9.33
2017-11-10T14:01:27.535Z,10.67
2017-11-10T14:03:34.125Z,10.50
2017-11-10T14:05:41.439Z,8.67
2017-11-10T14:07:49.472Z,8.53
2017-11-10T14:09:57.276Z,8.07
2017-11-10T14:12:05.748Z,9.60
2017-11-10T14:14:15.152Z,7.73
2017-11-10T14:16:27.926Z,6.47
2017-11-10T14:18:41.856Z,6.80
2017-11-10T14:20:53.134Z,7.33
2017-11-10T14:23:03.693Z,7.30
2017-11-10T14:25:15.782Z,5.70
2017-11-10T14:27:22.710Z,7.13
2017-11-10T14:29:30.591Z,5.50
2017-11-10T14:31:36.862Z,5.37
2017-11-10T14:33:43.286Z,4.73
2017-11-10T14:35:54.983Z,4.83
2017-11-10T14:38:00.869Z,4.90
2017-11-10T14:40:08.059Z,354.80
2017-11-10T14:42:18.836Z,421.37
2017-11-10T14:44:27.842Z,223.13
2017-11-10T14:46:35.649Z,185.73
2017-11-10T14:48:43.011Z,175.73
2017-11-10T14:50:51.100Z,113.97
2017-11-10T14:52:57.072Z,107.07
2017-11-10T14:55:04.336Z,71.63
2017-11-10T14:57:32.206Z,302.97
2017-11-10T14:59:38.267Z,394.67
2017-11-10T15:01:48.153Z,322.53
2017-11-10T15:03:55.770Z,202.13
2017-11-10T15:06:09.234Z,174.30
2017-11-10T15:08:17.252Z,144.50
2017-11-10T15:10:25.120Z,127.13
2017-11-10T15:12:31.310Z,247.33
2017-11-10T15:14:38.466Z,172.90
2017-11-10T15:16:45.557Z,205.10
2017-11-10T15:18:54.664Z,173.17
2017-11-10T15:21:06.233Z,190.60
2017-11-10T15:23:16.015Z,144.17
2017-11-10T15:25:22.737Z,142.50
2017-11-10T15:27:28.453Z,123.53
2017-11-10T15:29:35.002Z,103.20
2017-11-10T15:31:40.895Z,85.53
2017-11-10T15:33:47.739Z,74.03
2017-11-10T15:35:54.045Z,114.20
2017-11-10T15:38:03.411Z,276.47
2017-11-10T15:40:14.806Z,318.07
2017-11-10T15:42:21.707Z,223.67
2017-11-10T15:44:27.729Z,207.40
2017-11-10T15:46:33.639Z,171.10
2017-11-10T15:48:39.446Z,135.13
2017-11-10T15:50:46.072Z,123.57
2017-11-10T15:52:54.967Z,102.27
2017-11-10T15:55:05.630Z,89.83
2017-11-10T15:57:16.262Z,80.97
2017-11-10T15:59:33.204Z,69.20
2017-11-10T16:01:40.246Z,65.87
2017-11-10T16:03:47.354Z,52.77
2017-11-10T16:05:54.417Z,48.17
2017-11-10T16:08:09.217Z,47.13
2017-11-10T16:10:20.210Z,45.13
2017-11-10T16:12:26.260Z,30.70
2017-11-10T16:14:40.506Z,29.70
2017-11-10T16:16:47.367Z,31.10
2017-11-10T16:18:54.707Z,29.77
2017-11-10T16:21:08.115Z,27.57
2017-11-10T16:23:16.715Z,102.57
2017-11-10T16:27:52.692Z,234.47
2017-11-10T16:30:02.838Z,189.10
2017-11-10T16:32:09.896Z,169.60
2017-11-10T16:34:20.788Z,144.20
2017-11-10T16:39:24.812Z,106.57
2017-11-10T16:41:34.515Z,86.17
2017-11-10T16:43:53.296Z,76.33
2017-11-10T16:46:04.289Z,62.23
2017-11-10T16:48:27.544Z,52.80
2017-11-10T16:50:33.826Z,49.47
2017-11-10T16:52:39.886Z,52.17
2017-11-10T16:54:47.611Z,47.17
2017-11-10T16:56:54.372Z,39.60
2017-11-10T16:59:05.158Z,44.03
2017-11-10T17:01:20.316Z,37.80
2017-11-10T17:03:31.678Z,28.70
2017-11-10T17:05:41.512Z,30.27
2017-11-10T17:07:53.288Z,25.23
2017-11-10T17:10:02.117Z,21.70
2017-11-10T17:12:16.870Z,21.73
2017-11-10T17:14:28.052Z,22.10
2017-11-10T17:16:37.262Z,19.20
2017-11-10T17:18:45.623Z,17.30
2017-11-10T17:20:54.629Z,15.63
2017-11-10T17:23:04.897Z,14.87
2017-11-10T17:25:20.605Z,12.47
2017-11-10T17:27:26.963Z,12.77
2017-11-10T17:29:32.730Z,12.77
2017-11-10T17:31:42.248Z,12.10
2017-11-10T17:33:49.390Z,11.10
2017-11-10T17:35:57.510Z,9.00
2017-11-10T17:38:08.368Z,8.90
2017-11-10T17:40:20.980Z,9.17
2017-11-10T17:42:32.005Z,8.77
2017-11-10T17:44:43.802Z,8.33
2017-11-10T17:46:49.721Z,7.67
2017-11-10T17:48:57.227Z,7.53
2017-11-10T17:53:27.920Z,6.23
2017-11-10T17:55:34.264Z,6.13
2017-11-10T17:57:45.448Z,7.90
2017-11-10T17:59:53.572Z,8.47
2017-11-10T18:02:03.605Z,5.10
2017-11-10T18:04:21.872Z,5.63
2017-11-10T18:06:27.807Z,4.27
2017-11-10T18:08:34.799Z,5.50
2017-11-10T18:10:42.443Z,4.47
2017-11-10T18:12:50.651Z,3.93
2017-11-10T18:15:00.701Z,3.70
2017-11-10T18:17:08.388Z,3.57
2017-11-10T18:19:17.429Z,4.00
2017-11-10T18:21:25.359Z,4.20
2017-11-10T18:23:43.812Z,3.07
2017-11-10T18:25:50.871Z,2.93
2017-11-10T18:28:04.504Z,2.77
2017-11-10T18:30:18.883Z,2.60
2017-11-10T18:32:29.715Z,2.57
2017-11-10T18:34:37.628Z,3.40
2017-11-10T18:36:44.912Z,2.70
2017-11-10T18:38:53.221Z,2.50
2017-11-10T18:41:02.207Z,3.10
2017-11-10T18:43:09.295Z,2.23
2017-11-10T18:45:17.967Z,2.40
2017-11-10T18:47:26.172Z,2.80
2017-11-10T18:49:34.597Z,2.40
2017-11-10T18:51:42.068Z,2.50
2017-11-10T18:53:48.137Z,2.70
2017-11-10T18:55:56.728Z,2.27
2017-11-10T18:58:05.289Z,2.87
2017-11-10T19:00:17.930Z,2.60
2017-11-10T19:02:25.029Z,2.40
2017-11-10T19:04:30.880Z,2.60
2017-11-10T19:06:39.528Z,2.40
2017-11-10T19:08:50.380Z,2.30
2017-11-10T19:11:01.854Z,2.57
2017-11-10T19:13:14.555Z,2.63
2017-11-10T19:15:23.735Z,1.97
2017-11-10T19:17:36.216Z,2.50
2017-11-10T19:19:48.370Z,2.00
2017-11-10T19:21:54.869Z,2.10
2017-11-10T19:24:05.704Z,1.90
2017-11-10T19:26:19.088Z,2.30
2017-11-10T19:28:27.886Z,2.23
2017-11-10T19:30:33.979Z,2.03
2017-11-10T19:32:43.577Z,2.50
2017-11-10T19:34:49.571Z,2.53
2017-11-10T19:37:05.111Z,2.20
2017-11-10T19:39:22.495Z,2.13
2017-11-10T19:41:29.661Z,1.97
2017-11-10T19:43:37.568Z,2.20
2017-11-10T19:45:46.999Z,1.90
2017-11-10T19:48:12.523Z,2.20
2017-11-10T19:50:21.167Z,2.13
2017-11-10T19:52:28.616Z,1.83
2017-11-10T19:54:34.968Z,2.17
2017-11-10T19:56:48.414Z,2.50
2017-11-10T19:58:58.520Z,2.10
2017-11-10T20:01:07.291Z,1.90
2017-11-10T20:03:17.416Z,2.20
2017-11-10T20:05:23.730Z,2.50
2017-11-10T20:07:29.562Z,2.60
2017-11-10T20:09:37.111Z,3.33
2017-11-10T20:11:44.937Z,3.10
2017-11-10T20:13:52.783Z,3.83
2017-11-10T20:16:01.906Z,3.67
2017-11-10T20:18:12.819Z,3.33
2017-11-10T20:20:21.855Z,2.90
2017-11-10T20:22:29.982Z,3.40
2017-11-10T20:24:37.069Z,2.50
2017-11-10T20:27:01.964Z,3.17
2017-11-10T20:29:13.786Z,2.70
2017-11-10T20:31:28.679Z,2.67
2017-11-10T20:36:21.181Z,2.57
2017-11-10T20:38:30.670Z,2.53
2017-11-10T20:40:40.553Z,1.87
2017-11-10T20:42:51.489Z,2.20
2017-11-10T20:44:59.486Z,2.40
2017-11-10T20:47:19.575Z,2.13
2017-11-10T20:49:26.568Z,2.63
2017-11-10T20:51:40.241Z,1.50
2017-11-10T20:53:50.590Z,2.53
2017-11-10T20:56:20.785Z,2.00
2017-11-10T20:58:31.274Z,2.00
2017-11-10T21:00:45.797Z,1.97
2017-11-10T21:02:58.470Z,1.60
2017-11-10T21:05:08.860Z,2.10
2017-11-10T21:07:18.241Z,1.80
2017-11-10T21:09:24.685Z,2.00
2017-11-10T21:11:32.928Z,1.90
2017-11-10T21:13:53.402Z,1.70
2017-11-10T21:16:03.197Z,2.20
2017-11-10T21:18:10.522Z,1.80
2017-11-10T21:20:28.799Z,1.87
2017-11-10T21:22:38.032Z,1.80
2017-11-10T21:24:47.209Z,1.60
2017-11-10T21:27:01.498Z,1.70
2017-11-10T21:29:17.352Z,1.80
2017-11-10T21:31:29.190Z,1.70
2017-11-10T21:33:36.903Z,2.47
2017-11-10T21:38:46.537Z,1.70
2017-11-10T21:40:55.246Z,1.80
2017-11-10T21:43:10.687Z,1.70
2017-11-10T21:45:20.045Z,1.87
2017-11-10T21:48:01.235Z,2.10
2017-11-10T21:50:25.917Z,2.30
2017-11-10T21:52:46.136Z,1.80
2017-11-10T21:54:56.483Z,1.80
2017-11-10T21:57:07.886Z,1.80
2017-11-10T21:59:19.304Z,1.73
2017-11-10T22:01:30.969Z,2.50
2017-11-10T22:03:49.147Z,1.63
2017-11-10T22:05:56.457Z,1.90
2017-11-10T22:08:20.666Z,1.90
2017-11-10T22:10:31.702Z,1.63
2017-11-10T22:12:38.699Z,2.40
2017-11-10T22:14:50.279Z,2.40
2017-11-10T22:17:00.256Z,1.97
2017-11-10T22:19:09.845Z,1.70
2017-11-10T22:21:18.620Z,1.77
2017-11-10T22:23:25.003Z,2.07
2017-11-10T22:25:33.069Z,2.13
2017-11-10T22:30:39.650Z,2.40
2017-11-10T22:32:59.254Z,1.60
2017-11-10T22:35:08.532Z,1.80
2017-11-10T22:37:19.876Z,2.10
2017-11-10T22:39:25.964Z,2.13
2017-11-10T22:41:33.163Z,2.50
2017-11-10T22:43:39.178Z,1.90
2017-11-10T22:45:47.200Z,1.80
2017-11-10T22:47:53.918Z,2.00
2017-11-10T22:50:01.645Z,1.80
2017-11-10T22:52:08.915Z,1.80
2017-11-10T22:54:19.116Z,2.00
2017-11-10T22:56:26.222Z,1.87
2017-11-10T22:58:32.558Z,2.37
2017-11-10T23:00:38.666Z,2.00
2017-11-10T23:02:49.651Z,2.00
2017-11-10T23:04:56.456Z,2.40
2017-11-10T23:07:05.032Z,13.53
2017-11-10T23:09:14.799Z,31.30
2017-11-10T23:11:34.208Z,11.93
2017-11-10T23:13:40.540Z,12.93
2017-11-10T23:15:48.079Z,2.60
2017-11-10T23:18:02.273Z,19.27
2017-11-10T23:20:10.293Z,25.20
2017-11-10T23:22:19.337Z,13.73
2017-11-10T23:24:25.092Z,19.03
2017-11-10T23:26:31.193Z,169.73
2017-11-10T23:28:40.072Z,13.87
2017-11-10T23:30:48.051Z,368.27
2017-11-10T23:32:55.755Z,77.83
2017-11-10T23:35:05.185Z,762.10
2017-11-10T23:37:14.561Z,160.20
2017-11-10T23:39:20.554Z,795.17
2017-11-10T23:41:26.317Z,104.67
2017-11-10T23:43:32.161Z,82.37
2017-11-10T23:45:38.501Z,31.33
2017-11-10T23:47:45.265Z,5.93
2017-11-10T23:49:51.391Z,3.47
2017-11-10T23:52:03.100Z,2.67
2017-11-10T23:54:09.692Z,1.93
2017-11-10T23:56:17.718Z,2.57
2017-11-10T23:58:23.833Z,2.50
